Fukushima, Japan

10:38 AM JST on July 08, 2015 (GMT +0900)
Fukushima | | Change Station
CLOSE
Current Station
Airport
Location: Fukushima,
Elevation: 1220 ft
Nearby Weather Stations

Elev 1220 ft 37.23 °N, 140.43 °E | Updated 38 minutes ago

Light Rain
Light Rain
75 °F
Feels Like 75 °F
N
5
Wind Variable Wind from West

Today
High -- | Low -- °F
--% Chance of Precip.
Yesterday
High -- | Low -- °F
Precip. -- in
4:23 AM 7:02 PM
Waning Gibbous, 59% visible
Pressure 30.01 in
Visibility 6.2 miles
Clouds Few 2000 ft
Scattered Clouds 8000 ft
Mostly Cloudy 12000 ft
Dew Point 63 °F
Humidity 65%
Rainfall 0.00 in
Snow Depth Not available.
UV 5 out of 12
Pollen Not available.
Air Quality Not available.
Flu Activity Not available.
METAR RJSF 080100Z 26004KT 210V320 9999 -RA FEW020 SCT080 BKN120 24/17 Q1016

More Conditions Fewer Conditions

Pressure 30.01 in
Visibility 6.2 miles
Clouds Few 2000 ft
Scattered Clouds 8000 ft
Mostly Cloudy 12000 ft
Dew Point 63 °F
Humidity 65%
Rainfall 0.00 in
Snow Depth Not available.
UV 5 out of 12
Pollen Not available.
Air Quality Not available.
Flu Activity Not available.
METAR RJSF 080100Z 26004KT 210V320 9999 -RA FEW020 SCT080 BKN120 24/17 Q1016

More Conditions Fewer Conditions

10-Day Weather Forecast

×

Almanac

Astronomy

Jul. 08, 2015 Rise Set
Actual Time
Civil Twilight
Nautical Twilight
Astronomical Twilight
Moon
Length of Visible Light
Length of Day
Tomorrow will be .
, % of the Moon is Illuminated

Today's Extremes

Country Highs Country Lows

Community

WunderPhotos

Upload Photos

1,835,987 photos uploaded!

WunderBlogs® & News

Nearby

Air Quality

  Air Quality AQ Index Pollutant
Not available.

Snow Depth

Station Depth Elevation

Earthquake Activity

City Distance Mag. Time & Date
Minimum magnitude displayed is 2.5.

Coastal Water Temperatures

Place Temperature

Stations

Nearby Weather Stations

Station Location Temp. Windchill Dew Point Humidity Wind Precip. Elev Updated Type